createdAt,value
2023-11-08T00:02:12.917Z,5.99
2023-11-08T00:05:09.119Z,5.94
2023-11-08T00:08:05.797Z,5.84
2023-11-08T00:11:00.766Z,5.69
2023-11-08T00:13:46.164Z,5.65
2023-11-08T00:16:40.717Z,5.62
2023-11-08T00:19:35.023Z,5.57
2023-11-08T00:22:27.414Z,5.62
2023-11-08T00:25:20.079Z,5.63
2023-11-08T00:28:12.591Z,5.64
2023-11-08T00:31:11.341Z,5.53
2023-11-08T00:34:05.367Z,5.38
2023-11-08T00:37:01.382Z,5.20
2023-11-08T00:39:53.699Z,5.12
2023-11-08T00:42:46.901Z,5.17
2023-11-08T00:45:39.756Z,5.22
2023-11-08T00:48:38.026Z,5.24
2023-11-08T00:51:31.575Z,5.12
2023-11-08T00:54:24.519Z,5.03
2023-11-08T00:57:03.457Z,4.95
2023-11-08T00:59:56.206Z,5.02
2023-11-08T01:02:49.171Z,5.17
2023-11-08T01:05:43.242Z,5.27
2023-11-08T01:08:37.805Z,5.33
2023-11-08T01:11:37.124Z,5.37
2023-11-08T01:14:29.831Z,5.46
2023-11-08T01:17:22.582Z,5.42
2023-11-08T01:20:06.766Z,5.38
2023-11-08T01:23:23.197Z,5.34
2023-11-08T01:26:16.346Z,5.37
2023-11-08T01:29:09.173Z,5.41
2023-11-08T01:31:55.313Z,5.40
2023-11-08T01:34:50.348Z,5.37
2023-11-08T01:37:43.804Z,5.41
2023-11-08T01:40:37.701Z,5.41
2023-11-08T01:43:34.727Z,5.39
2023-11-08T01:46:29.031Z,5.44
2023-11-08T01:49:22.155Z,5.51
2023-11-08T01:52:14.874Z,5.56
2023-11-08T01:54:57.809Z,5.52
2023-11-08T01:57:49.845Z,5.55
2023-11-08T02:00:39.958Z,5.56
2023-11-08T02:03:57.003Z,5.59
2023-11-08T02:06:50.985Z,5.66
2023-11-08T02:09:46.848Z,5.72
2023-11-08T02:12:44.056Z,5.78
2023-11-08T02:15:44.613Z,5.82
2023-11-08T02:18:37.577Z,5.85
2023-11-08T02:21:30.162Z,5.89
2023-11-08T02:24:24.047Z,5.93
2023-11-08T02:27:17.399Z,5.98
2023-11-08T02:30:15.924Z,5.98
2023-11-08T02:33:10.378Z,5.96
2023-11-08T02:36:05.300Z,5.95
2023-11-08T02:38:58.132Z,5.90
2023-11-08T02:41:51.862Z,5.85
2023-11-08T02:44:41.072Z,5.79
2023-11-08T02:47:34.629Z,5.71
2023-11-08T02:50:21.432Z,5.65
2023-11-08T02:53:14.277Z,5.70
2023-11-08T02:56:07.679Z,5.74
2023-11-08T02:59:00.225Z,5.76
2023-11-08T03:01:57.165Z,5.83
2023-11-08T03:04:52.584Z,5.89
2023-11-08T03:07:46.134Z,5.85
2023-11-08T03:10:43.501Z,5.75
2023-11-08T03:13:37.044Z,5.72
2023-11-08T03:16:30.018Z,5.62
2023-11-08T03:19:22.516Z,5.55
2023-11-08T03:22:15.313Z,5.59
2023-11-08T03:25:25.268Z,5.67
2023-11-08T03:28:17.889Z,5.76
2023-11-08T03:31:16.669Z,5.86
2023-11-08T03:34:05.443Z,5.95
2023-11-08T03:37:00.323Z,6.06
2023-11-08T03:39:54.476Z,6.17
2023-11-08T03:42:47.888Z,6.23
2023-11-08T03:45:43.660Z,6.27
2023-11-08T03:48:37.109Z,6.34
2023-11-08T03:51:30.124Z,6.42
2023-11-08T03:54:24.233Z,6.47
2023-11-08T03:57:19.867Z,6.50
2023-11-08T04:00:17.838Z,6.51
2023-11-08T04:03:09.473Z,6.49
2023-11-08T04:06:02.419Z,6.46
2023-11-08T04:08:55.194Z,6.42
2023-11-08T04:11:47.829Z,6.37
2023-11-08T04:14:41.707Z,6.22
2023-11-08T04:17:37.032Z,6.06
2023-11-08T04:20:30.508Z,5.93
2023-11-08T04:23:23.208Z,5.90
2023-11-08T04:26:15.911Z,5.87
2023-11-08T04:29:08.727Z,5.78
2023-11-08T04:32:01.554Z,5.67
2023-11-08T04:34:40.480Z,5.61
2023-11-08T04:37:16.737Z,5.65
2023-11-08T04:40:19.423Z,5.58
2023-11-08T04:43:12.177Z,5.38
2023-11-08T04:46:05.428Z,5.25
2023-11-08T04:49:00.411Z,5.20
2023-11-08T04:51:53.444Z,5.13
2023-11-08T04:54:54.115Z,5.06
2023-11-08T04:57:48.166Z,5.01
2023-11-08T05:00:41.433Z,5.01
2023-11-08T05:03:34.364Z,5.06
2023-11-08T05:06:29.964Z,5.14
2023-11-08T05:09:22.932Z,5.16
2023-11-08T05:12:17.388Z,5.04
2023-11-08T05:15:12.019Z,4.92
2023-11-08T05:18:05.712Z,4.95
2023-11-08T06:07:49.389Z,5.72
2023-11-08T06:10:37.729Z,5.70
2023-11-08T06:13:39.113Z,5.66
2023-11-08T06:16:32.255Z,5.68
2023-11-08T06:19:35.513Z,5.69
2023-11-08T06:22:28.381Z,5.68
2023-11-08T06:25:24.264Z,5.74
2023-11-08T06:28:20.039Z,5.81
2023-11-08T06:31:12.701Z,5.87
2023-11-08T06:34:08.259Z,5.89
2023-11-08T06:37:00.786Z,5.92
2023-11-08T06:39:53.427Z,5.97
2023-11-08T06:42:47.400Z,6.09
2023-11-08T06:45:40.987Z,6.21
2023-11-08T06:48:41.577Z,6.29
2023-11-08T06:51:38.669Z,6.37
2023-11-08T06:54:32.262Z,6.45
2023-11-08T06:57:14.913Z,6.53
2023-11-08T07:00:12.378Z,6.64
2023-11-08T07:02:57.676Z,6.74
2023-11-08T07:05:43.800Z,6.84
2023-11-08T07:08:37.658Z,6.96
2023-11-08T07:11:35.777Z,7.08
2023-11-08T07:14:29.181Z,7.21
2023-11-08T07:17:21.769Z,7.33
2023-11-08T07:20:15.776Z,7.44
2023-11-08T07:23:12.266Z,7.53
2023-11-08T07:26:05.366Z,7.61
2023-11-08T07:29:23.422Z,7.67
2023-11-08T07:32:16.671Z,7.75
2023-11-08T07:35:12.602Z,7.82
2023-11-08T07:38:06.184Z,7.92
2023-11-08T07:41:02.914Z,8.01
2023-11-08T07:43:57.845Z,8.12
2023-11-08T07:46:52.449Z,8.24
2023-11-08T07:49:41.517Z,8.33
2023-11-08T07:52:35.873Z,8.42
2023-11-08T07:55:33.246Z,8.52
2023-11-08T07:58:26.779Z,8.60
2023-11-08T08:01:22.503Z,8.64
2023-11-08T08:04:36.700Z,8.69
2023-11-08T08:07:29.749Z,8.74
2023-11-08T08:10:23.802Z,8.81
2023-11-08T08:13:27.879Z,8.88
2023-11-08T08:16:29.670Z,8.97
2023-11-08T08:19:24.278Z,9.05
2023-11-08T08:22:22.101Z,9.17
2023-11-08T08:25:15.308Z,9.27
2023-11-08T08:28:08.404Z,9.35
2023-11-08T08:31:11.420Z,9.41
2023-11-08T10:11:49.823Z,11.17
2023-11-08T10:14:41.303Z,11.16
2023-11-08T10:19:29.991Z,11.19
2023-11-08T10:20:59.998Z,11.15
2023-11-08T10:23:55.797Z,11.09
2023-11-08T10:26:38.934Z,11.08
2023-11-08T10:29:28.364Z,11.15
2023-11-08T10:32:21.052Z,11.26
2023-11-08T10:35:18.933Z,11.36
2023-11-08T10:38:11.309Z,11.32
2023-11-08T10:41:00.166Z,11.26
2023-11-08T10:43:40.173Z,11.18
2023-11-08T10:46:29.350Z,11.10
2023-11-08T10:49:19.031Z,11.03
2023-11-08T10:52:11.507Z,11.01
2023-11-08T10:55:03.740Z,10.99
2023-11-08T10:57:55.056Z,10.96
2023-11-08T11:00:44.847Z,10.93
2023-11-08T11:03:37.560Z,10.95
2023-11-08T11:06:27.077Z,11.03
2023-11-08T11:09:45.604Z,11.14
2023-11-08T11:12:47.985Z,11.26
2023-11-08T11:15:44.224Z,11.30
2023-11-08T11:18:40.091Z,11.38
2023-11-08T11:21:36.295Z,11.42
2023-11-08T11:24:40.045Z,11.35
2023-11-08T11:27:48.187Z,11.33
2023-11-08T11:30:38.223Z,11.27
2023-11-08T11:33:35.551Z,11.20
2023-11-08T11:36:24.686Z,11.08
2023-11-08T11:39:19.808Z,11.03
2023-11-08T11:42:13.551Z,11.00
2023-11-08T11:45:06.116Z,11.01
2023-11-08T11:47:53.517Z,10.98
2023-11-08T11:50:32.708Z,10.98
2023-11-08T11:53:23.350Z,10.95
2023-11-08T11:56:13.298Z,10.90
2023-11-08T11:59:01.601Z,10.82
2023-11-08T12:01:50.646Z,10.76
2023-11-08T12:04:40.815Z,10.70
2023-11-08T12:07:30.171Z,10.62
2023-11-08T12:10:23.356Z,10.57
2023-11-08T12:13:12.188Z,10.55
2023-11-08T12:16:02.030Z,10.54
2023-11-08T12:18:52.917Z,10.55
2023-11-08T12:21:44.418Z,10.61
2023-11-08T12:24:33.849Z,10.67
2023-11-08T12:27:24.705Z,10.70
2023-11-08T12:30:14.195Z,10.74
2023-11-08T12:33:03.719Z,10.74
2023-11-08T12:35:53.590Z,10.71
2023-11-08T12:38:44.006Z,10.73
2023-11-08T12:41:43.471Z,10.79
2023-11-08T12:44:26.272Z,10.84
2023-11-08T12:47:00.409Z,10.86
2023-11-08T12:49:49.381Z,10.81
2023-11-08T12:52:48.499Z,10.73
2023-11-08T12:55:42.032Z,10.71
2023-11-08T12:58:33.710Z,10.69
2023-11-08T13:01:22.820Z,10.68
2023-11-08T13:04:13.094Z,10.64
2023-11-08T13:07:04.004Z,10.58
2023-11-08T13:09:53.089Z,10.54
2023-11-08T13:12:42.758Z,10.51
2023-11-08T13:15:31.779Z,10.49
2023-11-08T13:18:20.992Z,10.45
2023-11-08T13:21:10.221Z,10.37
2023-11-08T13:24:04.772Z,10.28
2023-11-08T13:26:49.301Z,10.21
2023-11-08T13:29:38.861Z,10.14
2023-11-08T13:32:29.496Z,10.12
2023-11-08T13:35:20.070Z,10.12
2023-11-08T13:38:11.390Z,10.10
2023-11-08T13:41:00.662Z,10.06
2023-11-08T13:43:39.643Z,10.05
2023-11-08T13:46:29.589Z,10.04
2023-11-08T13:49:18.554Z,10.01
2023-11-08T13:52:09.942Z,9.97
2023-11-08T13:54:59.976Z,9.93
2023-11-08T13:57:50.378Z,9.88
2023-11-08T14:00:47.055Z,9.84
2023-11-08T14:03:29.298Z,9.83
2023-11-08T14:06:18.359Z,9.84
2023-11-08T14:09:07.960Z,9.84
2023-11-08T14:11:57.360Z,9.84
2023-11-08T14:14:28.676Z,9.86
2023-11-08T14:17:39.891Z,9.85
2023-11-08T14:20:38.024Z,9.77
2023-11-08T14:23:28.281Z,9.72
2023-11-08T14:26:10.994Z,9.70
2023-11-08T14:29:00.128Z,9.65
2023-11-08T14:31:49.225Z,9.61
2023-11-08T14:34:39.717Z,9.57
2023-11-08T14:37:30.420Z,9.54
2023-11-08T14:40:20.704Z,9.50
2023-11-08T14:43:14.887Z,9.47
2023-11-08T14:46:04.801Z,9.48
2023-11-08T14:48:54.612Z,9.47
2023-11-08T14:51:48.624Z,9.47
2023-11-08T14:54:38.866Z,9.47
2023-11-08T14:57:19.357Z,9.45
2023-11-08T15:00:12.166Z,9.41
2023-11-08T15:03:05.918Z,9.36
2023-11-08T15:05:55.687Z,9.30
2023-11-08T15:09:51.048Z,9.24
2023-11-08T15:11:55.303Z,9.18
2023-11-08T15:14:48.004Z,9.13
2023-11-08T15:17:39.815Z,9.10
2023-11-08T15:20:21.715Z,9.05
2023-11-08T15:23:11.049Z,9.01
2023-11-08T15:26:01.916Z,8.98
2023-11-08T15:28:51.416Z,8.94
2023-11-08T15:31:33.239Z,8.89
2023-11-08T15:34:24.596Z,8.86
2023-11-08T15:37:13.501Z,8.82
2023-11-08T15:40:12.023Z,8.78
2023-11-08T15:43:00.761Z,8.75
2023-11-08T15:45:49.936Z,8.70
2023-11-08T15:48:40.578Z,8.68
2023-11-08T15:51:30.466Z,8.67
2023-11-08T15:54:42.614Z,8.67
2023-11-08T15:57:31.922Z,8.70
2023-11-08T16:00:21.874Z,8.73
2023-11-08T16:03:24.573Z,8.74
2023-11-08T16:06:29.538Z,8.74
2023-11-08T16:09:20.058Z,8.72
2023-11-08T16:12:10.273Z,8.69
2023-11-08T16:14:59.737Z,8.66
2023-11-08T16:17:53.632Z,8.61
2023-11-08T16:20:47.190Z,8.58
2023-11-08T16:23:59.794Z,8.55
2023-11-08T16:26:53.158Z,8.54
2023-11-08T16:29:51.503Z,8.54
2023-11-08T16:32:47.164Z,8.54
2023-11-08T16:35:44.765Z,8.56
2023-11-08T16:38:35.990Z,8.57
2023-11-08T16:42:12.912Z,8.58
2023-11-08T16:44:41.222Z,8.57
2023-11-08T16:47:33.962Z,8.54
2023-11-08T16:51:23.130Z,8.50
2023-11-08T16:53:47.458Z,8.47
2023-11-08T16:56:42.650Z,8.45
2023-11-08T16:59:38.695Z,8.43
2023-11-08T17:02:30.554Z,8.41
2023-11-08T17:05:20.232Z,8.41
2023-11-08T17:08:10.260Z,8.41
2023-11-08T17:11:00.549Z,8.41
2023-11-08T17:13:50.380Z,8.43
2023-11-08T17:16:39.678Z,8.43
2023-11-08T17:19:29.514Z,8.42
2023-11-08T17:22:18.964Z,8.39
2023-11-08T17:25:11.438Z,8.36
2023-11-08T17:28:16.969Z,8.31
2023-11-08T17:31:07.918Z,8.28
2023-11-08T17:33:57.363Z,8.26
2023-11-08T17:36:47.829Z,8.25
2023-11-08T17:39:39.904Z,8.28
2023-11-08T17:42:32.289Z,8.28
2023-11-08T17:45:48.063Z,8.30
2023-11-08T17:48:45.169Z,8.28
2023-11-08T17:51:38.191Z,8.25
2023-11-08T17:54:32.194Z,8.22
2023-11-08T17:57:25.270Z,8.20
2023-11-08T18:00:20.444Z,8.15
2023-11-08T18:03:10.323Z,8.11
2023-11-08T18:06:09.296Z,8.08
2023-11-08T18:09:01.879Z,8.06
2023-11-08T18:11:59.427Z,8.04
2023-11-08T18:14:51.536Z,8.02
2023-11-08T18:17:44.391Z,8.04
2023-11-08T18:20:44.402Z,8.03
2023-11-08T18:23:26.864Z,8.05
2023-11-08T18:26:20.249Z,8.06
2023-11-08T18:29:09.500Z,8.07
2023-11-08T18:32:01.144Z,8.08
2023-11-08T18:35:36.235Z,8.08
2023-11-08T18:38:04.249Z,8.09
2023-11-08T18:41:04.657Z,8.07
2023-11-08T18:43:54.805Z,8.04
2023-11-08T18:46:44.632Z,8.01
2023-11-08T18:49:34.252Z,7.98
2023-11-08T18:52:27.595Z,7.98
2023-11-08T18:55:17.071Z,7.98
2023-11-08T18:58:13.350Z,7.99
2023-11-08T19:01:29.812Z,8.01
2023-11-08T19:04:36.644Z,8.05
2023-11-08T19:07:30.786Z,8.08
2023-11-08T19:10:30.287Z,8.11
2023-11-08T19:13:29.757Z,8.14
2023-11-08T19:16:19.452Z,8.13
2023-11-08T19:19:08.956Z,8.13
2023-11-08T19:21:53.529Z,8.11
2023-11-08T19:24:42.666Z,8.09
2023-11-08T19:28:01.243Z,8.07
2023-11-08T19:30:50.857Z,8.06
2023-11-08T19:33:40.178Z,8.07
2023-11-08T19:36:29.460Z,8.09
2023-11-08T19:39:18.472Z,8.11
2023-11-08T19:42:09.441Z,8.12
2023-11-08T19:45:00.510Z,8.13
2023-11-08T19:47:50.089Z,8.12
2023-11-08T19:50:42.429Z,8.09
2023-11-08T19:54:18.315Z,8.05
2023-11-08T19:56:47.021Z,7.99
2023-11-08T19:59:59.281Z,7.94
2023-11-08T20:02:48.712Z,7.92
2023-11-08T20:06:00.985Z,7.92
2023-11-08T20:08:54.718Z,7.97
2023-11-08T20:12:05.046Z,7.99
2023-11-08T20:14:54.686Z,7.98
2023-11-08T20:17:47.661Z,8.00
2023-11-08T20:20:59.103Z,8.05
2023-11-08T20:25:08.151Z,8.08
2023-11-08T20:27:29.817Z,8.08
2023-11-08T20:30:21.023Z,8.08
2023-11-08T20:33:10.135Z,8.05
2023-11-08T20:36:05.124Z,8.00
2023-11-08T20:38:49.585Z,7.96
2023-11-08T20:41:38.846Z,7.94
2023-11-08T20:44:30.570Z,7.93
2023-11-08T20:47:20.439Z,7.90
2023-11-08T20:50:11.460Z,7.91
2023-11-08T20:53:01.001Z,7.92
2023-11-08T20:56:10.493Z,7.94
2023-11-08T20:59:03.981Z,7.95
2023-11-08T21:01:45.967Z,7.97
2023-11-08T21:04:36.896Z,8.00
2023-11-08T21:07:31.440Z,8.03
2023-11-08T21:10:21.673Z,8.06
2023-11-08T21:13:15.947Z,8.13
2023-11-08T21:16:08.403Z,8.18
2023-11-08T21:19:02.492Z,8.20
2023-11-08T21:21:56.607Z,8.18
2023-11-08T21:24:49.324Z,8.14
2023-11-08T21:27:39.410Z,8.11
2023-11-08T21:30:33.293Z,8.11
2023-11-08T21:33:13.035Z,8.10
2023-11-08T21:36:05.742Z,8.06
2023-11-08T21:38:57.629Z,8.01
2023-11-08T21:41:39.629Z,7.98
2023-11-08T21:44:31.390Z,7.99
2023-11-08T21:47:20.714Z,7.98
2023-11-08T21:50:10.983Z,7.96
2023-11-08T21:53:02.761Z,7.91
2023-11-08T21:56:04.091Z,7.85
2023-11-08T21:58:45.989Z,7.73
2023-11-08T22:01:44.164Z,7.64
2023-11-08T22:04:26.444Z,7.59
2023-11-08T22:07:18.316Z,7.53
2023-11-08T22:10:13.143Z,7.47
2023-11-08T22:13:04.483Z,7.44
2023-11-08T22:15:59.525Z,7.42
2023-11-08T22:18:41.571Z,7.41
2023-11-08T22:21:32.235Z,7.42
2023-11-08T22:24:14.921Z,7.43
2023-11-08T22:27:07.090Z,7.45
2023-11-08T22:29:56.605Z,7.47
2023-11-08T22:32:45.957Z,7.50
2023-11-08T22:35:43.020Z,7.54
2023-11-08T22:38:35.111Z,7.56
2023-11-08T22:41:28.133Z,7.58
2023-11-08T22:44:17.050Z,7.60
2023-11-08T22:47:06.828Z,7.62
2023-11-08T22:49:51.423Z,7.64
2023-11-08T22:52:40.361Z,7.64
2023-11-08T22:55:31.037Z,7.62
2023-11-08T22:58:22.249Z,7.62
2023-11-08T23:01:26.033Z,7.62
2023-11-08T23:05:02.805Z,7.61
2023-11-08T23:07:26.952Z,7.58
2023-11-08T23:10:17.191Z,7.60
2023-11-08T23:13:06.643Z,7.62
2023-11-08T23:15:56.436Z,7.62
2023-11-08T23:18:46.278Z,7.63
2023-11-08T23:21:32.197Z,7.65
2023-11-08T23:24:24.278Z,7.66
2023-11-08T23:27:13.592Z,7.66
2023-11-08T23:30:03.177Z,7.65
2023-11-08T23:32:52.612Z,7.63
2023-11-08T23:35:42.320Z,7.60
2023-11-08T23:38:33.385Z,7.54
2023-11-08T23:41:17.451Z,7.51
2023-11-08T23:44:09.360Z,7.50
2023-11-08T23:46:59.469Z,7.49
2023-11-08T23:49:48.818Z,7.47
2023-11-08T23:52:39.174Z,7.47
2023-11-08T23:55:42.849Z,7.47
2023-11-08T23:58:22.630Z,7.50
